Weather at Ubari Airport

Public forecast

Using degrees Celsius for public forecast. Weather courtesy of forecast.io.

Closest aviation weather report (METAR) to Ubari Airport

Report is more than 6 hours old.

Closest report is Sabha Airport, 91.9 nm (170.3 km) ENE. Retrieved 2013/10/09 17:50 UTC (8 years ago):

HLLS 091750Z 11006KT CAVOK 25/01 Q 1019

Closest aviation forecast (TAF) to Ubari Airport

Closest forecast is Sabha Airport, 91.9 nm (170.3 km) ENE. Retrieved 2021/04/17 18:00 UTC (3 hours ago):

TAF HLLS 171700Z 1718/1818 32010KT 8000 NSC BECMG 1806/1808 04010KT